sensor_id;sensor_type;location;lat;lon;timestamp;pressure;altitude;pressure_sealevel;temperature;humidity
46583;BME280;32309;48.858;8.252;2024-01-11T00:00:30;101428.59;;;-4.18;74.67
46583;BME280;32309;48.858;8.252;2024-01-11T00:02:30;101429.31;;;-4.25;74.91
46583;BME280;32309;48.858;8.252;2024-01-11T00:04:34;101425.88;;;-4.27;74.54
46583;BME280;32309;48.858;8.252;2024-01-11T00:06:43;101425.09;;;-4.24;74.44
46583;BME280;32309;48.858;8.252;2024-01-11T00:08:45;101419.09;;;-4.28;74.83
46583;BME280;32309;48.858;8.252;2024-01-11T00:10:45;101421.56;;;-4.31;75.11
46583;BME280;32309;48.858;8.252;2024-01-11T00:12:45;101419.84;;;-4.32;75.02
46583;BME280;32309;48.858;8.252;2024-01-11T00:14:46;101423.94;;;-4.39;75.34
46583;BME280;32309;48.858;8.252;2024-01-11T00:16:46;101420.47;;;-4.42;75.29
46583;BME280;32309;48.858;8.252;2024-01-11T00:18:46;101419.63;;;-4.43;75.84
46583;BME280;32309;48.858;8.252;2024-01-11T00:20:47;101421.25;;;-4.45;75.96
46583;BME280;32309;48.858;8.252;2024-01-11T00:22:47;101427.19;;;-4.44;76.19
46583;BME280;32309;48.858;8.252;2024-01-11T00:24:47;101432.28;;;-4.43;75.91
46583;BME280;32309;48.858;8.252;2024-01-11T00:26:48;101428.91;;;-4.43;76.54
46583;BME280;32309;48.858;8.252;2024-01-11T00:28:48;101429.69;;;-4.46;76.14
46583;BME280;32309;48.858;8.252;2024-01-11T00:30:49;101423.66;;;-4.51;75.89
46583;BME280;32309;48.858;8.252;2024-01-11T00:32:49;101421.97;;;-4.51;76.15
46583;BME280;32309;48.858;8.252;2024-01-11T00:34:49;101424.50;;;-4.51;76.76
46583;BME280;32309;48.858;8.252;2024-01-11T00:36:49;101424.50;;;-4.51;76.58
46583;BME280;32309;48.858;8.252;2024-01-11T00:38:50;101419.41;;;-4.52;76.69
46583;BME280;32309;48.858;8.252;2024-01-11T00:40:50;101419.41;;;-4.52;76.52
46583;BME280;32309;48.858;8.252;2024-01-11T00:42:51;101416.84;;;-4.54;76.62
46583;BME280;32309;48.858;8.252;2024-01-11T00:44:51;101411.66;;;-4.58;76.62
46583;BME280;32309;48.858;8.252;2024-01-11T00:46:51;101413.38;;;-4.57;76.79
46583;BME280;32309;48.858;8.252;2024-01-11T00:48:52;101420.13;;;-4.58;77.17
46583;BME280;32309;48.858;8.252;2024-01-11T00:50:52;101418.50;;;-4.54;76.95
46583;BME280;32309;48.858;8.252;2024-01-11T00:52:52;101419.38;;;-4.54;76.64
46583;BME280;32309;48.858;8.252;2024-01-11T00:54:52;101419.25;;;-4.58;77.17
46583;BME280;32309;48.858;8.252;2024-01-11T00:56:54;101415.06;;;-4.58;77.13
46583;BME280;32309;48.858;8.252;2024-01-11T00:58:54;101421.09;;;-4.53;77.24
46583;BME280;32309;48.858;8.252;2024-01-11T01:00:54;101420.19;;;-4.55;77.22
46583;BME280;32309;48.858;8.252;2024-01-11T01:02:58;101421.91;;;-4.54;76.52
46583;BME280;32309;48.858;8.252;2024-01-11T01:05:01;101420.19;;;-4.55;76.69
46583;BME280;32309;48.858;8.252;2024-01-11T01:07:01;101419.47;;;-4.49;76.40
46583;BME280;32309;48.858;8.252;2024-01-11T01:09:05;101418.63;;;-4.49;76.69
46583;BME280;32309;48.858;8.252;2024-01-11T01:11:05;101416.97;;;-4.47;76.09
46583;BME280;32309;48.858;8.252;2024-01-11T01:13:07;101426.16;;;-4.53;76.43
46583;BME280;32309;48.858;8.252;2024-01-11T01:15:07;101425.25;;;-4.55;76.45
46583;BME280;32309;48.858;8.252;2024-01-11T01:17:07;101431.06;;;-4.59;76.54
46583;BME280;32309;48.858;8.252;2024-01-11T01:19:07;101425.09;;;-4.61;76.56
46583;BME280;32309;48.858;8.252;2024-01-11T01:21:08;101422.59;;;-4.59;76.60
46583;BME280;32309;48.858;8.252;2024-01-11T01:23:08;101428.53;;;-4.59;76.80
46583;BME280;32309;48.858;8.252;2024-01-11T01:25:08;101435.94;;;-4.66;76.88
46583;BME280;32309;48.858;8.252;2024-01-11T01:27:09;101429.06;;;-4.72;76.93
46583;BME280;32309;48.858;8.252;2024-01-11T01:29:09;101425.63;;;-4.74;77.59
46583;BME280;32309;48.858;8.252;2024-01-11T01:31:09;101432.47;;;-4.70;77.16
46583;BME280;32309;48.858;8.252;2024-01-11T01:33:10;101429.13;;;-4.69;77.18
46583;BME280;32309;48.858;8.252;2024-01-11T01:35:11;101427.34;;;-4.73;76.90
46583;BME280;32309;48.858;8.252;2024-01-11T01:37:11;101434.00;;;-4.77;77.32
46583;BME280;32309;48.858;8.252;2024-01-11T01:39:11;101432.25;;;-4.79;77.86
46583;BME280;32309;48.858;8.252;2024-01-11T01:41:12;101428.84;;;-4.81;77.32
46583;BME280;32309;48.858;8.252;2024-01-11T01:43:12;101431.44;;;-4.78;77.08
46583;BME280;32309;48.858;8.252;2024-01-11T01:45:14;101433.75;;;-4.88;77.33
46583;BME280;32309;48.858;8.252;2024-01-11T01:47:15;101442.31;;;-4.82;77.97
46583;BME280;32309;48.858;8.252;2024-01-11T01:49:17;101439.66;;;-4.87;78.31
46583;BME280;32309;48.858;8.252;2024-01-11T01:51:22;101430.22;;;-4.94;78.39
46583;BME280;32309;48.858;8.252;2024-01-11T01:53:23;101441.31;;;-4.89;78.56
46583;BME280;32309;48.858;8.252;2024-01-11T01:55:28;101440.44;;;-4.90;78.78
46583;BME280;32309;48.858;8.252;2024-01-11T01:57:29;101443.72;;;-4.92;78.61
46583;BME280;32309;48.858;8.252;2024-01-11T01:59:32;101447.19;;;-4.89;78.45
46583;BME280;32309;48.858;8.252;2024-01-11T02:01:35;101445.41;;;-4.93;78.64
46583;BME280;32309;48.858;8.252;2024-01-11T02:03:36;101452.25;;;-4.89;78.52
46583;BME280;32309;48.858;8.252;2024-01-11T02:05:37;101446.38;;;-4.88;78.89
46583;BME280;32309;48.858;8.252;2024-01-11T02:07:38;101447.94;;;-4.93;79.09
46583;BME280;32309;48.858;8.252;2024-01-11T02:09:39;101451.22;;;-4.97;79.20
46583;BME280;32309;48.858;8.252;2024-01-11T02:11:41;101460.41;;;-4.99;79.21
46583;BME280;32309;48.858;8.252;2024-01-11T02:13:41;101452.75;;;-5.04;79.45
46583;BME280;32309;48.858;8.252;2024-01-11T02:15:42;101452.75;;;-5.04;79.58
46583;BME280;32309;48.858;8.252;2024-01-11T02:17:42;101446.81;;;-5.04;79.48
46583;BME280;32309;48.858;8.252;2024-01-11T02:19:42;101451.78;;;-5.07;79.78
46583;BME280;32309;48.858;8.252;2024-01-11T02:21:43;101449.22;;;-5.09;79.76
46583;BME280;32309;48.858;8.252;2024-01-11T02:25:55;101455.00;;;-5.14;80.26
46583;BME280;32309;48.858;8.252;2024-01-11T02:27:58;101450.00;;;-5.11;79.92
46583;BME280;32309;48.858;8.252;2024-01-11T02:29:58;101449.22;;;-5.09;80.18
46583;BME280;32309;48.858;8.252;2024-01-11T02:32:02;101443.22;;;-5.12;79.74
46583;BME280;32309;48.858;8.252;2024-01-11T02:34:03;101455.03;;;-5.13;80.22
46583;BME280;32309;48.858;8.252;2024-01-11T02:36:03;101446.53;;;-5.15;80.27
46583;BME280;32309;48.858;8.252;2024-01-11T02:38:04;101442.38;;;-5.13;80.32
46583;BME280;32309;48.858;8.252;2024-01-11T02:40:07;101444.91;;;-5.13;79.93
46583;BME280;32309;48.858;8.252;2024-01-11T02:42:08;101442.34;;;-5.14;80.47
46583;BME280;32309;48.858;8.252;2024-01-11T02:44:08;101450.84;;;-5.11;80.22
46583;BME280;32309;48.858;8.252;2024-01-11T02:46:08;101453.28;;;-5.15;80.35
46583;BME280;32309;48.858;8.252;2024-01-11T02:48:09;101446.56;;;-5.13;80.11
46583;BME280;32309;48.858;8.252;2024-01-11T02:50:09;101443.19;;;-5.14;80.11
46583;BME280;32309;48.858;8.252;2024-01-11T02:52:11;101443.13;;;-5.17;80.52
46583;BME280;32309;48.858;8.252;2024-01-11T02:54:12;101449.81;;;-5.19;80.56
46583;BME280;32309;48.858;8.252;2024-01-11T02:56:12;101446.50;;;-5.16;80.60
46583;BME280;32309;48.858;8.252;2024-01-11T02:58:12;101443.41;;;-5.06;80.04
46583;BME280;32309;48.858;8.252;2024-01-11T03:00:13;101450.81;;;-5.12;80.15
46583;BME280;32309;48.858;8.252;2024-01-11T03:02:13;101445.75;;;-5.12;80.63
46583;BME280;32309;48.858;8.252;2024-01-11T03:04:13;101449.16;;;-5.12;80.79
46583;BME280;32309;48.858;8.252;2024-01-11T03:06:14;101436.34;;;-5.18;80.56
46583;BME280;32309;48.858;8.252;2024-01-11T03:08:14;101433.81;;;-5.18;80.79
46583;BME280;32309;48.858;8.252;2024-01-11T03:10:14;101432.09;;;-5.19;80.99
46583;BME280;32309;48.858;8.252;2024-01-11T03:12:15;101430.38;;;-5.20;80.85
46583;BME280;32309;48.858;8.252;2024-01-11T03:14:15;101427.78;;;-5.23;81.08
46583;BME280;32309;48.858;8.252;2024-01-11T03:16:15;101425.22;;;-5.25;81.27
46583;BME280;32309;48.858;8.252;2024-01-11T03:18:16;101421.13;;;-5.21;81.03
46583;BME280;32309;48.858;8.252;2024-01-11T03:20:16;101427.81;;;-5.22;81.03
46583;BME280;32309;48.858;8.252;2024-01-11T03:22:20;101420.09;;;-5.28;81.63
46583;BME280;32309;48.858;8.252;2024-01-11T03:24:20;101418.28;;;-5.32;81.45
46583;BME280;32309;48.858;8.252;2024-01-11T03:26:20;101417.47;;;-5.31;81.74
46583;BME280;32309;48.858;8.252;2024-01-11T03:28:20;101424.88;;;-5.37;81.78
46583;BME280;32309;48.858;8.252;2024-01-11T03:30:22;101414.72;;;-5.40;81.78
46583;BME280;32309;48.858;8.252;2024-01-11T03:32:22;101415.47;;;-5.43;82.69
46583;BME280;32309;48.858;8.252;2024-01-11T03:34:23;101420.56;;;-5.41;82.62
46583;BME280;32309;48.858;8.252;2024-01-11T03:36:24;101418.06;;;-5.41;83.05
46583;BME280;32309;48.858;8.252;2024-01-11T03:38:27;101423.03;;;-5.44;83.07
46583;BME280;32309;48.858;8.252;2024-01-11T03:40:27;101426.47;;;-5.42;83.04
46583;BME280;32309;48.858;8.252;2024-01-11T03:42:28;101420.72;;;-5.37;82.12
46583;BME280;32309;48.858;8.252;2024-01-11T03:44:28;101427.34;;;-5.40;82.29
46583;BME280;32309;48.858;8.252;2024-01-11T03:46:28;101418.13;;;-5.40;82.57
46583;BME280;32309;48.858;8.252;2024-01-11T03:48:29;101414.88;;;-5.34;81.97
46583;BME280;32309;48.858;8.252;2024-01-11T03:50:30;101412.31;;;-5.36;82.36
46583;BME280;32309;48.858;8.252;2024-01-11T03:52:31;101416.59;;;-5.33;82.45
46583;BME280;32309;48.858;8.252;2024-01-11T03:54:31;101415.63;;;-5.38;82.76
46583;BME280;32309;48.858;8.252;2024-01-11T03:56:37;101415.72;;;-5.33;82.35
46583;BME280;32309;48.858;8.252;2024-01-11T03:58:37;101419.16;;;-5.31;81.83
46583;BME280;32309;48.858;8.252;2024-01-11T04:00:39;101414.84;;;-5.36;82.22
46583;BME280;32309;48.858;8.252;2024-01-11T04:02:39;101412.22;;;-5.39;82.16
46583;BME280;32309;48.858;8.252;2024-01-11T04:04:40;101409.66;;;-5.40;82.18
46583;BME280;32309;48.858;8.252;2024-01-11T04:06:41;101418.97;;;-5.39;82.48
46583;BME280;32309;48.858;8.252;2024-01-11T04:08:41;101409.91;;;-5.31;82.27
46583;BME280;32309;48.858;8.252;2024-01-11T04:10:41;101408.28;;;-5.29;82.04
46583;BME280;32309;48.858;8.252;2024-01-11T04:12:41;101405.72;;;-5.30;82.02
46583;BME280;32309;48.858;8.252;2024-01-11T04:14:42;101408.13;;;-5.35;82.40
46583;BME280;32309;48.858;8.252;2024-01-11T04:16:42;101408.25;;;-5.30;82.22
46583;BME280;32309;48.858;8.252;2024-01-11T04:18:43;101414.25;;;-5.25;81.47
46583;BME280;32309;48.858;8.252;2024-01-11T04:20:43;101408.25;;;-5.30;82.11
46583;BME280;32309;48.858;8.252;2024-01-11T04:22:43;101405.66;;;-5.32;81.98
46583;BME280;32309;48.858;8.252;2024-01-11T04:24:43;101406.53;;;-5.31;82.03
46583;BME280;32309;48.858;8.252;2024-01-11T04:26:44;101409.88;;;-5.32;81.94
46583;BME280;32309;48.858;8.252;2024-01-11T04:28:44;101405.56;;;-5.37;82.31
46583;BME280;32309;48.858;8.252;2024-01-11T04:30:45;101404.59;;;-5.40;82.54
46583;BME280;32309;48.858;8.252;2024-01-11T04:32:45;101407.16;;;-5.39;82.43
46583;BME280;32309;48.858;8.252;2024-01-11T04:34:46;101408.78;;;-5.42;82.38
46583;BME280;32309;48.858;8.252;2024-01-11T04:36:47;101403.75;;;-5.41;82.87
46583;BME280;32309;48.858;8.252;2024-01-11T04:38:48;101414.88;;;-5.34;82.53
46583;BME280;32309;48.858;8.252;2024-01-11T04:40:48;101408.06;;;-5.37;82.59
46583;BME280;32309;48.858;8.252;2024-01-11T04:42:48;101413.94;;;-5.38;82.44
46583;BME280;32309;48.858;8.252;2024-01-11T04:44:48;101410.63;;;-5.35;82.22
46583;BME280;32309;48.858;8.252;2024-01-11T04:46:49;101413.38;;;-5.27;81.94
46583;BME280;32309;48.858;8.252;2024-01-11T04:48:49;101419.94;;;-5.34;82.22
46583;BME280;32309;48.858;8.252;2024-01-11T04:50:50;101419.81;;;-5.39;82.44
46583;BME280;32309;48.858;8.252;2024-01-11T04:52:50;101417.13;;;-5.45;82.38
46583;BME280;32309;48.858;8.252;2024-01-11T04:54:50;101416.53;;;-5.35;82.52
46583;BME280;32309;48.858;8.252;2024-01-11T04:56:52;101415.88;;;-5.29;82.28
46583;BME280;32309;48.858;8.252;2024-01-11T04:58:52;101416.66;;;-5.30;81.57
46583;BME280;32309;48.858;8.252;2024-01-11T05:00:52;101415.75;;;-5.32;81.84
46583;BME280;32309;48.858;8.252;2024-01-11T05:02:52;101414.09;;;-5.31;82.33
46583;BME280;32309;48.858;8.252;2024-01-11T05:04:53;101423.44;;;-5.29;81.48
46583;BME280;32309;48.858;8.252;2024-01-11T05:06:53;101425.03;;;-5.32;81.88
46583;BME280;32309;48.858;8.252;2024-01-11T05:08:53;101427.69;;;-5.28;81.41
46583;BME280;32309;48.858;8.252;2024-01-11T05:10:53;101422.47;;;-5.34;81.58
46583;BME280;32309;48.858;8.252;2024-01-11T05:12:54;101420.72;;;-5.37;82.06
46583;BME280;32309;48.858;8.252;2024-01-11T05:14:55;101430.03;;;-5.34;81.69
46583;BME280;32309;48.858;8.252;2024-01-11T05:16:56;101424.88;;;-5.37;81.50
46583;BME280;32309;48.858;8.252;2024-01-11T05:18:56;101440.19;;;-5.32;81.24
46583;BME280;32309;48.858;8.252;2024-01-11T05:20:57;101434.28;;;-5.33;81.58
46583;BME280;32309;48.858;8.252;2024-01-11T05:22:57;101442.50;;;-5.40;82.18
46583;BME280;32309;48.858;8.252;2024-01-11T05:24:58;101439.91;;;-5.43;82.22
46583;BME280;32309;48.858;8.252;2024-01-11T05:26:58;101434.06;;;-5.42;82.20
46583;BME280;32309;48.858;8.252;2024-01-11T05:28:59;101444.22;;;-5.39;82.07
46583;BME280;32309;48.858;8.252;2024-01-11T05:31:00;101444.22;;;-5.39;82.01
46583;BME280;32309;48.858;8.252;2024-01-11T05:33:00;101448.53;;;-5.35;81.42
46583;BME280;32309;48.858;8.252;2024-01-11T05:35:00;101448.53;;;-5.35;81.54
46583;BME280;32309;48.858;8.252;2024-01-11T05:37:01;101453.50;;;-5.40;81.91
46583;BME280;32309;48.858;8.252;2024-01-11T05:39:01;101461.09;;;-5.38;82.33
46583;BME280;32309;48.858;8.252;2024-01-11T05:41:01;101466.97;;;-5.39;81.97
46583;BME280;32309;48.858;8.252;2024-01-11T05:43:02;101461.91;;;-5.39;82.24
46583;BME280;32309;48.858;8.252;2024-01-11T05:45:03;101461.00;;;-5.41;82.39
46583;BME280;32309;48.858;8.252;2024-01-11T05:47:04;101463.63;;;-5.38;82.47
46583;BME280;32309;48.858;8.252;2024-01-11T05:49:05;101463.66;;;-5.37;82.17
46583;BME280;32309;48.858;8.252;2024-01-11T05:51:05;101461.97;;;-5.36;82.35
46583;BME280;32309;48.858;8.252;2024-01-11T05:53:06;101461.06;;;-5.40;82.16
46583;BME280;32309;48.858;8.252;2024-01-11T05:55:06;101470.31;;;-5.40;82.38
46583;BME280;32309;48.858;8.252;2024-01-11T05:57:06;101474.50;;;-5.41;82.33
46583;BME280;32309;48.858;8.252;2024-01-11T05:59:07;101471.25;;;-5.37;82.30
46583;BME280;32309;48.858;8.252;2024-01-11T06:01:07;101461.91;;;-5.39;82.18
46583;BME280;32309;48.858;8.252;2024-01-11T06:03:08;101463.50;;;-5.43;82.09
46583;BME280;32309;48.858;8.252;2024-01-11T06:05:10;101464.19;;;-5.48;82.88
46583;BME280;32309;48.858;8.252;2024-01-11T06:07:12;101466.19;;;-5.37;82.57
46583;BME280;32309;48.858;8.252;2024-01-11T06:09:12;101461.22;;;-5.33;81.98
46583;BME280;32309;48.858;8.252;2024-01-11T06:11:12;101466.97;;;-5.39;82.22
46583;BME280;32309;48.858;8.252;2024-01-11T06:13:14;101462.63;;;-5.45;82.08
46583;BME280;32309;48.858;8.252;2024-01-11T06:15:14;101455.84;;;-5.46;82.08
46583;BME280;32309;48.858;8.252;2024-01-11T06:17:18;101459.88;;;-5.53;82.27
46583;BME280;32309;48.858;8.252;2024-01-11T06:19:18;101466.66;;;-5.52;82.74
46583;BME280;32309;48.858;8.252;2024-01-11T06:21:18;101460.78;;;-5.49;82.30
46583;BME280;32309;48.858;8.252;2024-01-11T06:23:18;101470.06;;;-5.49;82.59
46583;BME280;32309;48.858;8.252;2024-01-11T06:25:19;101470.06;;;-5.49;82.37
46583;BME280;32309;48.858;8.252;2024-01-11T06:27:20;101472.41;;;-5.56;82.93
46583;BME280;32309;48.858;8.252;2024-01-11T06:29:20;101474.34;;;-5.47;82.62
46583;BME280;32309;48.858;8.252;2024-01-11T06:31:20;101479.94;;;-5.27;82.12
46583;BME280;32309;48.858;8.252;2024-01-11T06:33:20;101464.88;;;-5.24;81.17
46583;BME280;32309;48.858;8.252;2024-01-11T06:35:21;101472.34;;;-5.27;81.28
46583;BME280;32309;48.858;8.252;2024-01-11T06:37:21;101471.34;;;-5.32;81.37
46583;BME280;32309;48.858;8.252;2024-01-11T06:39:22;101472.28;;;-5.30;81.54
46583;BME280;32309;48.858;8.252;2024-01-11T06:41:25;101484.84;;;-5.33;81.66
46583;BME280;32309;48.858;8.252;2024-01-11T06:43:26;101470.44;;;-5.36;82.01
46583;BME280;32309;48.858;8.252;2024-01-11T06:45:27;101477.06;;;-5.39;81.67
46583;BME280;32309;48.858;8.252;2024-01-11T06:47:27;101479.53;;;-5.42;81.88
46583;BME280;32309;48.858;8.252;2024-01-11T06:49:27;101477.69;;;-5.46;81.85
46583;BME280;32309;48.858;8.252;2024-01-11T06:51:28;101476.59;;;-5.56;82.72
46583;BME280;32309;48.858;8.252;2024-01-11T06:53:29;101490.03;;;-5.57;83.22
46583;BME280;32309;48.858;8.252;2024-01-11T06:55:34;101489.28;;;-5.55;83.06
46583;BME280;32309;48.858;8.252;2024-01-11T06:57:35;101487.47;;;-5.59;83.43
46583;BME280;32309;48.858;8.252;2024-01-11T06:59:35;101500.19;;;-5.56;82.90
46583;BME280;32309;48.858;8.252;2024-01-11T07:01:36;101500.09;;;-5.59;83.13
46583;BME280;32309;48.858;8.252;2024-01-11T07:03:37;101502.56;;;-5.62;83.83
46583;BME280;32309;48.858;8.252;2024-01-11T07:05:37;101517.78;;;-5.59;83.59
46583;BME280;32309;48.858;8.252;2024-01-11T07:07:37;101515.94;;;-5.64;83.76
46583;BME280;32309;48.858;8.252;2024-01-11T07:09:38;101510.91;;;-5.64;84.21
46583;BME280;32309;48.858;8.252;2024-01-11T07:11:38;101511.75;;;-5.64;84.04
46583;BME280;32309;48.858;8.252;2024-01-11T07:13:40;101513.38;;;-5.66;83.75
46583;BME280;32309;48.858;8.252;2024-01-11T07:15:40;101504.72;;;-5.74;83.83
46583;BME280;32309;48.858;8.252;2024-01-11T07:17:41;101510.88;;;-5.66;84.24
46583;BME280;32309;48.858;8.252;2024-01-11T07:19:41;101512.88;;;-5.54;83.21
46583;BME280;32309;48.858;8.252;2024-01-11T07:21:41;101517.03;;;-5.56;83.27
46583;BME280;32309;48.858;8.252;2024-01-11T07:23:41;101522.84;;;-5.59;82.91
46583;BME280;32309;48.858;8.252;2024-01-11T07:25:42;101517.81;;;-5.57;83.00
46583;BME280;32309;48.858;8.252;2024-01-11T07:27:42;101523.91;;;-5.51;82.96
46583;BME280;32309;48.858;8.252;2024-01-11T07:29:42;101528.84;;;-5.55;82.87
46583;BME280;32309;48.858;8.252;2024-01-11T07:31:43;101531.16;;;-5.63;83.12
46583;BME280;32309;48.858;8.252;2024-01-11T07:33:43;101527.06;;;-5.59;83.26
46583;BME280;32309;48.858;8.252;2024-01-11T07:35:47;101535.56;;;-5.56;83.25
46583;BME280;32309;48.858;8.252;2024-01-11T07:37:47;101533.91;;;-5.55;83.13
46583;BME280;32309;48.858;8.252;2024-01-11T07:39:50;101539.72;;;-5.58;83.73
46583;BME280;32309;48.858;8.252;2024-01-11T07:41:50;101537.22;;;-5.56;83.26
46583;BME280;32309;48.858;8.252;2024-01-11T07:43:50;101544.84;;;-5.55;83.47
46583;BME280;32309;48.858;8.252;2024-01-11T07:45:51;101549.09;;;-5.54;83.13
46583;BME280;32309;48.858;8.252;2024-01-11T07:47:53;101551.63;;;-5.54;82.91
46583;BME280;32309;48.858;8.252;2024-01-11T07:49:53;101551.69;;;-5.51;82.84
46583;BME280;32309;48.858;8.252;2024-01-11T07:51:54;101548.41;;;-5.48;83.31
46583;BME280;32309;48.858;8.252;2024-01-11T07:53:54;101548.44;;;-5.46;82.82
46583;BME280;32309;48.858;8.252;2024-01-11T07:55:54;101555.91;;;-5.51;83.05
46583;BME280;32309;48.858;8.252;2024-01-11T07:57:55;101559.94;;;-5.58;83.47
46583;BME280;32309;48.858;8.252;2024-01-11T07:59:55;101576.13;;;-5.51;82.95
46583;BME280;32309;48.858;8.252;2024-01-11T08:01:56;101579.41;;;-5.54;83.53
46583;BME280;32309;48.858;8.252;2024-01-11T08:03:56;101573.59;;;-5.51;83.17
46583;BME280;32309;48.858;8.252;2024-01-11T08:05:57;101572.88;;;-5.47;83.12
46583;BME280;32309;48.858;8.252;2024-01-11T08:07:57;101575.53;;;-5.42;82.44
46583;BME280;32309;48.858;8.252;2024-01-11T08:10:01;101580.50;;;-5.45;82.85
46583;BME280;32309;48.858;8.252;2024-01-11T08:12:03;101586.41;;;-5.45;82.57
46583;BME280;32309;48.858;8.252;2024-01-11T08:14:04;101586.47;;;-5.43;82.48
46583;BME280;32309;48.858;8.252;2024-01-11T08:16:05;101598.44;;;-5.36;81.99
46583;BME280;32309;48.858;8.252;2024-01-11T08:18:09;101603.41;;;-5.39;81.99
46583;BME280;32309;48.858;8.252;2024-01-11T08:20:11;101611.09;;;-5.36;82.38
46583;BME280;32309;48.858;8.252;2024-01-11T08:22:11;101606.00;;;-5.38;82.66
46583;BME280;32309;48.858;8.252;2024-01-11T08:24:12;101609.44;;;-5.36;82.23
46583;BME280;32309;48.858;8.252;2024-01-11T08:26:12;101614.47;;;-5.36;82.89
46583;BME280;32309;48.858;8.252;2024-01-11T08:28:16;101611.28;;;-5.30;82.75
46583;BME280;32309;48.858;8.252;2024-01-11T08:30:19;101607.22;;;-5.25;82.73
46583;BME280;32309;48.858;8.252;2024-01-11T08:32:19;101613.06;;;-5.26;82.23
46583;BME280;32309;48.858;8.252;2024-01-11T08:34:20;101600.72;;;-5.15;81.85
46583;BME280;32309;48.858;8.252;2024-01-11T08:36:21;101594.94;;;-5.11;81.08
46583;BME280;32309;48.858;8.252;2024-01-11T08:38:24;101601.63;;;-5.14;81.68
46583;BME280;32309;48.858;8.252;2024-01-11T08:40:29;101604.13;;;-5.14;82.05
46583;BME280;32309;48.858;8.252;2024-01-11T08:42:32;101596.66;;;-5.10;82.21
46583;BME280;32309;48.858;8.252;2024-01-11T08:44:42;101606.78;;;-5.10;81.74
46583;BME280;32309;48.858;8.252;2024-01-11T08:46:52;101599.19;;;-5.10;81.76
46583;BME280;32309;48.858;8.252;2024-01-11T08:48:52;101602.09;;;-4.97;81.33
46583;BME280;32309;48.858;8.252;2024-01-11T08:51:02;101600.34;;;-5.00;81.49
46583;BME280;32309;48.858;8.252;2024-01-11T08:53:03;101599.44;;;-5.01;81.72
46583;BME280;32309;48.858;8.252;2024-01-11T08:55:03;101599.63;;;-4.94;81.73
46583;BME280;32309;48.858;8.252;2024-01-11T08:57:04;101608.22;;;-4.89;81.33
46583;BME280;32309;48.858;8.252;2024-01-11T08:59:06;101600.66;;;-4.88;81.44
46583;BME280;32309;48.858;8.252;2024-01-11T09:01:11;101591.44;;;-4.86;81.57
46583;BME280;32309;48.858;8.252;2024-01-11T09:03:18;101594.09;;;-4.81;80.97
46583;BME280;32309;48.858;8.252;2024-01-11T09:05:21;101583.38;;;-4.72;81.70
46583;BME280;32309;48.858;8.252;2024-01-11T09:07:21;101582.47;;;-4.74;80.76
46583;BME280;32309;48.858;8.252;2024-01-11T09:09:22;101595.25;;;-4.70;81.54
46583;BME280;32309;48.858;8.252;2024-01-11T09:11:22;101591.34;;;-4.57;80.82
46583;BME280;32309;48.858;8.252;2024-01-11T09:13:22;101595.75;;;-4.49;80.49
46583;BME280;32309;48.858;8.252;2024-01-11T09:15:23;101590.00;;;-4.44;80.62
46583;BME280;32309;48.858;8.252;2024-01-11T09:17:23;101592.53;;;-4.44;80.65
46583;BME280;32309;48.858;8.252;2024-01-11T09:19:23;101601.94;;;-4.38;80.80
46583;BME280;32309;48.858;8.252;2024-01-11T09:21:24;101596.25;;;-4.29;80.42
46583;BME280;32309;48.858;8.252;2024-01-11T09:23:25;101592.97;;;-4.25;79.55
46583;BME280;32309;48.858;8.252;2024-01-11T09:25:26;101595.50;;;-4.25;79.61
46583;BME280;32309;48.858;8.252;2024-01-11T09:27:27;101596.44;;;-4.22;79.85
46583;BME280;32309;48.858;8.252;2024-01-11T09:29:27;101593.09;;;-4.21;79.61
46583;BME280;32309;48.858;8.252;2024-01-11T09:31:29;101600.59;;;-4.24;79.82
46583;BME280;32309;48.858;8.252;2024-01-11T09:33:29;101587.94;;;-4.24;80.44
46583;BME280;32309;48.858;8.252;2024-01-11T09:35:29;101598.28;;;-4.16;79.54
46583;BME280;32309;48.858;8.252;2024-01-11T09:37:30;101609.38;;;-4.11;79.54
46583;BME280;32309;48.858;8.252;2024-01-11T09:39:31;101600.34;;;-4.01;79.17
46583;BME280;32309;48.858;8.252;2024-01-11T09:41:32;101597.81;;;-4.01;79.34
46583;BME280;32309;48.858;8.252;2024-01-11T09:43:36;101597.81;;;-4.01;79.29
46583;BME280;32309;48.858;8.252;2024-01-11T09:45:37;101607.47;;;-3.85;79.05
46583;BME280;32309;48.858;8.252;2024-01-11T09:47:37;101598.91;;;-3.90;78.94
46583;BME280;32309;48.858;8.252;2024-01-11T09:49:38;101604.94;;;-3.85;79.45
46583;BME280;32309;48.858;8.252;2024-01-11T09:51:40;101612.88;;;-3.71;78.65
46583;BME280;32309;48.858;8.252;2024-01-11T09:53:43;101614.59;;;-3.68;78.26
46583;BME280;32309;48.858;8.252;2024-01-11T09:55:44;101620.69;;;-3.60;78.17
46583;BME280;32309;48.858;8.252;2024-01-11T09:57:47;101608.06;;;-3.58;77.59
46583;BME280;32309;48.858;8.252;2024-01-11T09:59:49;101611.53;;;-3.55;77.62
46583;BME280;32309;48.858;8.252;2024-01-11T10:01:54;101608.97;;;-3.56;77.47
46583;BME280;32309;48.858;8.252;2024-01-11T10:03:54;101598.94;;;-3.50;77.38
46583;BME280;32309;48.858;8.252;2024-01-11T10:05:57;101600.63;;;-3.51;77.61
46583;BME280;32309;48.858;8.252;2024-01-11T10:07:58;101591.66;;;-3.35;75.96
46583;BME280;32309;48.858;8.252;2024-01-11T10:09:58;101593.28;;;-3.38;76.28
46583;BME280;32309;48.858;8.252;2024-01-11T10:11:59;101600.22;;;-3.31;75.64
46583;BME280;32309;48.858;8.252;2024-01-11T10:14:03;101599.31;;;-3.33;76.28
46583;BME280;32309;48.858;8.252;2024-01-11T10:16:11;101596.84;;;-3.30;76.72
46583;BME280;32309;48.858;8.252;2024-01-11T10:18:15;101587.63;;;-3.25;76.32
46583;BME280;32309;48.858;8.252;2024-01-11T10:20:16;101584.38;;;-3.21;75.90
46583;BME280;32309;48.858;8.252;2024-01-11T10:22:23;101581.22;;;-3.09;75.87
46583;BME280;32309;48.858;8.252;2024-01-11T10:24:24;101577.72;;;-3.14;76.48
46583;BME280;32309;48.858;8.252;2024-01-11T10:26:26;101572.72;;;-3.11;76.17
46583;BME280;32309;48.858;8.252;2024-01-11T10:28:28;101571.31;;;-2.96;75.32
46583;BME280;32309;48.858;8.252;2024-01-11T10:30:28;101562.16;;;-2.88;75.10
46583;BME280;32309;48.858;8.252;2024-01-11T10:32:29;101564.78;;;-2.83;75.25
46583;BME280;32309;48.858;8.252;2024-01-11T10:34:29;101561.56;;;-2.73;74.54